sensor_id;sensor_type;location;lat;lon;timestamp;pressure;altitude;pressure_sealevel;temperature;humidity
23616;BME280;11985;49.404;7.734;2023-04-30T00:03:54;97686.69;;;9.33;100.00
23616;BME280;11985;49.404;7.734;2023-04-30T00:08:56;97689.06;;;9.28;100.00
23616;BME280;11985;49.404;7.734;2023-04-30T00:13:59;97689.88;;;9.29;100.00
23616;BME280;11985;49.404;7.734;2023-04-30T00:19:00;97686.44;;;9.28;100.00
23616;BME280;11985;49.404;7.734;2023-04-30T00:24:02;97673.28;;;9.28;100.00
23616;BME280;11985;49.404;7.734;2023-04-30T00:29:05;97677.72;;;9.28;100.00
23616;BME280;11985;49.404;7.734;2023-04-30T00:34:07;97677.72;;;9.28;100.00
23616;BME280;11985;49.404;7.734;2023-04-30T00:39:09;97684.16;;;9.25;100.00
23616;BME280;11985;49.404;7.734;2023-04-30T00:44:12;97683.34;;;9.24;100.00
23616;BME280;11985;49.404;7.734;2023-04-30T00:49:14;97686.16;;;9.23;100.00
23616;BME280;11985;49.404;7.734;2023-04-30T00:54:15;97687.53;;;9.19;100.00
23616;BME280;11985;49.404;7.734;2023-04-30T00:59:20;97683.09;;;9.19;100.00
23616;BME280;11985;49.404;7.734;2023-04-30T01:04:21;97667.53;;;9.18;100.00
23616;BME280;11985;49.404;7.734;2023-04-30T01:09:23;97670.16;;;9.18;100.00
23616;BME280;11985;49.404;7.734;2023-04-30T01:14:32;97664.25;;;9.16;100.00
23616;BME280;11985;49.404;7.734;2023-04-30T01:19:41;97669.88;;;9.13;100.00
23616;BME280;11985;49.404;7.734;2023-04-30T01:24:52;97665.81;;;9.10;100.00
23616;BME280;11985;49.404;7.734;2023-04-30T01:30:00;97668.00;;;9.07;100.00
23616;BME280;11985;49.404;7.734;2023-04-30T01:35:04;97663.75;;;9.06;100.00
23616;BME280;11985;49.404;7.734;2023-04-30T01:40:16;97665.13;;;9.02;100.00
23616;BME280;11985;49.404;7.734;2023-04-30T01:45:34;97669.75;;;8.99;100.00
23616;BME280;11985;49.404;7.734;2023-04-30T01:50:47;97683.88;;;8.98;100.00
23616;BME280;11985;49.404;7.734;2023-04-30T01:55:53;97680.63;;;8.96;100.00
23616;BME280;11985;49.404;7.734;2023-04-30T02:00:59;97675.38;;;8.96;100.00
23616;BME280;11985;49.404;7.734;2023-04-30T02:06:00;97661.63;;;8.94;100.00
23616;BME280;11985;49.404;7.734;2023-04-30T02:11:02;97659.53;;;8.90;100.00
23616;BME280;11985;49.404;7.734;2023-04-30T02:16:06;97660.34;;;8.90;100.00
23616;BME280;11985;49.404;7.734;2023-04-30T02:21:07;97663.97;;;8.89;100.00
23616;BME280;11985;49.404;7.734;2023-04-30T02:26:09;97666.34;;;8.84;100.00
23616;BME280;11985;49.404;7.734;2023-04-30T02:31:12;97660.44;;;8.82;100.00
23616;BME280;11985;49.404;7.734;2023-04-30T02:36:13;97671.16;;;8.81;100.00
23616;BME280;11985;49.404;7.734;2023-04-30T02:41:15;97665.69;;;8.82;100.00
23616;BME280;11985;49.404;7.734;2023-04-30T02:46:18;97678.84;;;8.82;100.00
23616;BME280;11985;49.404;7.734;2023-04-30T02:51:20;97675.59;;;8.80;100.00
23616;BME280;11985;49.404;7.734;2023-04-30T02:56:21;97675.59;;;8.80;100.00
23616;BME280;11985;49.404;7.734;2023-04-30T03:01:24;97677.59;;;8.78;100.00
23616;BME280;11985;49.404;7.734;2023-04-30T03:06:26;97669.88;;;8.77;100.00
23616;BME280;11985;49.404;7.734;2023-04-30T03:11:28;97652.50;;;8.76;100.00
23616;BME280;11985;49.404;7.734;2023-04-30T03:16:31;97662.56;;;8.72;100.00
23616;BME280;11985;49.404;7.734;2023-04-30T03:21:32;97660.91;;;8.71;100.00
23616;BME280;11985;49.404;7.734;2023-04-30T03:26:34;97656.06;;;8.68;100.00
23616;BME280;11985;49.404;7.734;2023-04-30T03:31:37;97651.41;;;8.70;100.00
23616;BME280;11985;49.404;7.734;2023-04-30T03:36:38;97645.91;;;8.65;100.00
23616;BME280;11985;49.404;7.734;2023-04-30T03:41:40;97644.47;;;8.62;100.00
23616;BME280;11985;49.404;7.734;2023-04-30T03:46:43;97649.06;;;8.60;100.00
23616;BME280;11985;49.404;7.734;2023-04-30T03:51:45;97638.41;;;8.62;100.00
23616;BME280;11985;49.404;7.734;2023-04-30T03:56:47;97647.28;;;8.61;100.00
23616;BME280;11985;49.404;7.734;2023-04-30T04:01:50;97639.41;;;8.61;100.00
23616;BME280;11985;49.404;7.734;2023-04-30T04:06:51;97643.41;;;8.57;100.00
23616;BME280;11985;49.404;7.734;2023-04-30T04:11:53;97645.03;;;8.58;100.00
23616;BME280;11985;49.404;7.734;2023-04-30T04:16:56;97645.84;;;8.58;100.00
23616;BME280;11985;49.404;7.734;2023-04-30T04:21:59;97647.44;;;8.59;100.00
23616;BME280;11985;49.404;7.734;2023-04-30T04:27:00;97652.53;;;8.61;100.00
23616;BME280;11985;49.404;7.734;2023-04-30T04:32:04;97661.66;;;8.65;100.00
23616;BME280;11985;49.404;7.734;2023-04-30T04:37:06;97659.75;;;8.73;100.00
23616;BME280;11985;49.404;7.734;2023-04-30T04:42:07;97653.09;;;8.92;100.00
23616;BME280;11985;49.404;7.734;2023-04-30T04:47:10;97652.50;;;9.12;100.00
23616;BME280;11985;49.404;7.734;2023-04-30T04:52:12;97657.38;;;9.15;100.00
23616;BME280;11985;49.404;7.734;2023-04-30T04:57:14;97666.66;;;9.11;100.00
23616;BME280;11985;49.404;7.734;2023-04-30T05:02:17;97660.47;;;9.04;100.00
23616;BME280;11985;49.404;7.734;2023-04-30T05:07:18;97664.13;;;9.03;100.00
23616;BME280;11985;49.404;7.734;2023-04-30T05:12:20;97666.13;;;9.01;100.00
23616;BME280;11985;49.404;7.734;2023-04-30T05:17:23;97664.50;;;8.99;100.00
23616;BME280;11985;49.404;7.734;2023-04-30T05:22:25;97662.94;;;9.05;100.00
23616;BME280;11985;49.404;7.734;2023-04-30T05:27:27;97669.13;;;9.19;100.00
23616;BME280;11985;49.404;7.734;2023-04-30T05:32:30;97672.53;;;9.34;100.00
23616;BME280;11985;49.404;7.734;2023-04-30T05:37:31;97675.78;;;9.36;100.00
23616;BME280;11985;49.404;7.734;2023-04-30T05:42:33;97670.53;;;9.36;100.00
23616;BME280;11985;49.404;7.734;2023-04-30T05:47:36;97670.16;;;9.39;100.00
23616;BME280;11985;49.404;7.734;2023-04-30T05:52:37;97667.84;;;9.51;100.00
23616;BME280;11985;49.404;7.734;2023-04-30T05:57:39;97668.00;;;9.71;100.00
23616;BME280;11985;49.404;7.734;2023-04-30T06:02:42;97668.44;;;9.74;100.00
23616;BME280;11985;49.404;7.734;2023-04-30T06:07:44;97672.47;;;9.77;100.00
23616;BME280;11985;49.404;7.734;2023-04-30T06:12:45;97671.75;;;9.83;100.00
23616;BME280;11985;49.404;7.734;2023-04-30T06:17:48;97680.69;;;9.89;100.00
23616;BME280;11985;49.404;7.734;2023-04-30T06:22:50;97670.22;;;9.95;100.00
23616;BME280;11985;49.404;7.734;2023-04-30T06:27:52;97672.97;;;9.87;100.00
23616;BME280;11985;49.404;7.734;2023-04-30T06:32:55;97668.28;;;9.83;100.00
23616;BME280;11985;49.404;7.734;2023-04-30T06:37:57;97670.81;;;9.97;100.00
23616;BME280;11985;49.404;7.734;2023-04-30T06:42:58;97669.34;;;10.16;100.00
23616;BME280;11985;49.404;7.734;2023-04-30T06:48:01;97671.56;;;10.47;100.00
23616;BME280;11985;49.404;7.734;2023-04-30T06:53:03;97674.34;;;10.74;100.00
23616;BME280;11985;49.404;7.734;2023-04-30T06:58:05;97678.44;;;10.83;100.00
23616;BME280;11985;49.404;7.734;2023-04-30T07:03:08;97675.34;;;11.41;100.00
23616;BME280;11985;49.404;7.734;2023-04-30T07:08:10;97674.13;;;11.70;100.00
23616;BME280;11985;49.404;7.734;2023-04-30T07:13:12;97673.31;;;11.62;100.00
23616;BME280;11985;49.404;7.734;2023-04-30T07:18:15;97674.13;;;11.63;100.00
23616;BME280;11985;49.404;7.734;2023-04-30T07:23:17;97665.63;;;11.68;100.00
23616;BME280;11985;49.404;7.734;2023-04-30T07:28:20;97668.25;;;11.68;98.66
23616;BME280;11985;49.404;7.734;2023-04-30T07:33:23;97676.56;;;11.58;99.59
23616;BME280;11985;49.404;7.734;2023-04-30T07:38:24;97680.22;;;11.70;98.90
23616;BME280;11985;49.404;7.734;2023-04-30T07:43:26;97669.69;;;12.17;97.98
23616;BME280;11985;49.404;7.734;2023-04-30T07:48:29;97662.63;;;12.68;94.85
23616;BME280;11985;49.404;7.734;2023-04-30T07:53:31;97655.94;;;13.04;92.63
23616;BME280;11985;49.404;7.734;2023-04-30T07:58:33;97665.66;;;13.24;89.89
23616;BME280;11985;49.404;7.734;2023-04-30T08:03:36;97658.78;;;13.09;86.85
23616;BME280;11985;49.404;7.734;2023-04-30T08:08:37;97666.63;;;12.84;85.86
23616;BME280;11985;49.404;7.734;2023-04-30T08:13:39;97665.50;;;12.67;85.79
23616;BME280;11985;49.404;7.734;2023-04-30T08:18:42;97672.38;;;12.75;85.31
23616;BME280;11985;49.404;7.734;2023-04-30T08:23:45;97663.06;;;13.10;84.44
23616;BME280;11985;49.404;7.734;2023-04-30T08:28:47;97671.63;;;12.99;83.85
23616;BME280;11985;49.404;7.734;2023-04-30T08:33:50;97664.84;;;13.16;83.21
23616;BME280;11985;49.404;7.734;2023-04-30T08:38:52;97662.06;;;13.43;78.42
23616;BME280;11985;49.404;7.734;2023-04-30T08:43:55;97675.31;;;13.93;75.61
23616;BME280;11985;49.404;7.734;2023-04-30T08:49:02;97671.50;;;13.89;72.48
23616;BME280;11985;49.404;7.734;2023-04-30T08:54:03;97672.69;;;13.68;72.48
23616;BME280;11985;49.404;7.734;2023-04-30T08:59:05;97657.34;;;13.52;73.42
23616;BME280;11985;49.404;7.734;2023-04-30T09:04:08;97666.78;;;13.91;71.12
23616;BME280;11985;49.404;7.734;2023-04-30T09:09:11;97671.78;;;14.24;67.67
23616;BME280;11985;49.404;7.734;2023-04-30T09:14:22;97675.25;;;14.24;65.76
23616;BME280;11985;49.404;7.734;2023-04-30T09:19:26;97656.75;;;13.74;62.76
23616;BME280;11985;49.404;7.734;2023-04-30T09:24:44;97668.94;;;13.76;63.87
23616;BME280;11985;49.404;7.734;2023-04-30T09:29:46;97670.97;;;13.80;62.83
23616;BME280;11985;49.404;7.734;2023-04-30T09:34:49;97667.09;;;13.83;63.55
23616;BME280;11985;49.404;7.734;2023-04-30T09:39:52;97668.97;;;14.00;63.43
23616;BME280;11985;49.404;7.734;2023-04-30T09:44:55;97666.47;;;13.81;62.53
23616;BME280;11985;49.404;7.734;2023-04-30T09:49:59;97666.97;;;13.96;61.90
23616;BME280;11985;49.404;7.734;2023-04-30T09:55:01;97670.84;;;13.93;60.22
23616;BME280;11985;49.404;7.734;2023-04-30T10:00:03;97673.03;;;13.78;60.09
23616;BME280;11985;49.404;7.734;2023-04-30T10:05:08;97675.03;;;13.83;61.39
23616;BME280;11985;49.404;7.734;2023-04-30T10:10:10;97666.84;;;13.84;61.38
23616;BME280;11985;49.404;7.734;2023-04-30T10:15:15;97665.19;;;13.90;61.45
23616;BME280;11985;49.404;7.734;2023-04-30T10:20:20;97667.53;;;13.98;62.01
23616;BME280;11985;49.404;7.734;2023-04-30T10:25:23;97671.66;;;13.94;61.86
23616;BME280;11985;49.404;7.734;2023-04-30T10:30:27;97663.13;;;13.92;60.77
23616;BME280;11985;49.404;7.734;2023-04-30T10:35:39;97654.38;;;14.10;60.91
23616;BME280;11985;49.404;7.734;2023-04-30T10:40:45;97647.94;;;14.42;59.71
23616;BME280;11985;49.404;7.734;2023-04-30T10:45:47;97645.69;;;14.64;59.79
23616;BME280;11985;49.404;7.734;2023-04-30T10:50:51;97635.94;;;14.95;58.86
23616;BME280;11985;49.404;7.734;2023-04-30T10:55:57;97620.66;;;15.09;58.06
23616;BME280;11985;49.404;7.734;2023-04-30T11:01:00;97630.50;;;14.90;57.56
23616;BME280;11985;49.404;7.734;2023-04-30T11:06:10;97634.94;;;14.77;57.02
23616;BME280;11985;49.404;7.734;2023-04-30T11:11:17;97625.09;;;14.66;57.78
23616;BME280;11985;49.404;7.734;2023-04-30T11:16:27;97625.06;;;14.85;59.29
23616;BME280;11985;49.404;7.734;2023-04-30T11:21:31;97626.63;;;15.04;57.53
23616;BME280;11985;49.404;7.734;2023-04-30T11:27:04;97617.66;;;15.05;57.86
23616;BME280;11985;49.404;7.734;2023-04-30T11:32:06;97610.81;;;14.97;58.08
23616;BME280;11985;49.404;7.734;2023-04-30T11:37:11;97612.13;;;15.07;58.11
23616;BME280;11985;49.404;7.734;2023-04-30T11:42:15;97600.59;;;15.13;59.10
23616;BME280;11985;49.404;7.734;2023-04-30T11:47:17;97599.34;;;14.85;57.61
23616;BME280;11985;49.404;7.734;2023-04-30T11:52:24;97606.06;;;14.69;57.63
23616;BME280;11985;49.404;7.734;2023-04-30T11:57:26;97588.56;;;14.68;57.47
23616;BME280;11985;49.404;7.734;2023-04-30T12:02:27;97602.22;;;14.84;57.04
23616;BME280;11985;49.404;7.734;2023-04-30T12:07:30;97584.16;;;14.92;55.50
23616;BME280;11985;49.404;7.734;2023-04-30T12:12:35;97592.13;;;15.04;54.58
23616;BME280;11985;49.404;7.734;2023-04-30T12:17:37;97581.47;;;14.81;54.83
23616;BME280;11985;49.404;7.734;2023-04-30T12:22:40;97589.00;;;14.65;54.74
23616;BME280;11985;49.404;7.734;2023-04-30T12:27:45;97584.56;;;14.77;55.48
23616;BME280;11985;49.404;7.734;2023-04-30T12:32:50;97584.94;;;14.93;55.44
23616;BME280;11985;49.404;7.734;2023-04-30T12:38:02;97575.25;;;15.17;55.18
23616;BME280;11985;49.404;7.734;2023-04-30T12:43:06;97568.56;;;15.38;54.61
23616;BME280;11985;49.404;7.734;2023-04-30T12:48:08;97569.16;;;15.40;53.99
23616;BME280;11985;49.404;7.734;2023-04-30T12:53:11;97569.81;;;15.23;53.38
23616;BME280;11985;49.404;7.734;2023-04-30T12:58:13;97570.38;;;15.14;53.61
23616;BME280;11985;49.404;7.734;2023-04-30T13:03:17;97567.75;;;15.37;54.30
23616;BME280;11985;49.404;7.734;2023-04-30T13:08:21;97558.34;;;15.76;53.58
23616;BME280;11985;49.404;7.734;2023-04-30T13:13:22;97557.16;;;16.19;53.31
23616;BME280;11985;49.404;7.734;2023-04-30T13:18:24;97545.50;;;16.49;50.69
23616;BME280;11985;49.404;7.734;2023-04-30T13:23:27;97539.13;;;16.61;50.14
23616;BME280;11985;49.404;7.734;2023-04-30T13:28:29;97531.53;;;17.27;50.05
23616;BME280;11985;49.404;7.734;2023-04-30T13:33:30;97549.41;;;17.15;47.93
23616;BME280;11985;49.404;7.734;2023-04-30T13:38:33;97538.25;;;16.84;47.76
23616;BME280;11985;49.404;7.734;2023-04-30T13:43:35;97527.69;;;16.61;47.44
23616;BME280;11985;49.404;7.734;2023-04-30T13:48:37;97530.47;;;17.11;47.82
23616;BME280;11985;49.404;7.734;2023-04-30T13:53:40;97521.84;;;17.38;48.08
23616;BME280;11985;49.404;7.734;2023-04-30T13:58:42;97512.38;;;17.81;48.45
23616;BME280;11985;49.404;7.734;2023-04-30T14:03:44;97510.41;;;18.15;46.89
23616;BME280;11985;49.404;7.734;2023-04-30T14:08:48;97503.47;;;18.14;46.73
23616;BME280;11985;49.404;7.734;2023-04-30T14:13:50;97504.97;;;18.05;46.17
23616;BME280;11985;49.404;7.734;2023-04-30T14:18:51;97498.69;;;17.72;45.60
23616;BME280;11985;49.404;7.734;2023-04-30T14:23:54;97482.59;;;17.67;45.99
23616;BME280;11985;49.404;7.734;2023-04-30T14:28:56;97486.41;;;17.93;45.79
23616;BME280;11985;49.404;7.734;2023-04-30T14:33:58;97486.72;;;17.97;45.37
23616;BME280;11985;49.404;7.734;2023-04-30T14:39:00;97492.28;;;17.73;45.60
23616;BME280;11985;49.404;7.734;2023-04-30T14:44:03;97476.94;;;17.80;45.76
23616;BME280;11985;49.404;7.734;2023-04-30T14:49:05;97474.34;;;17.85;44.91
23616;BME280;11985;49.404;7.734;2023-04-30T14:54:08;97472.41;;;17.64;44.62
23616;BME280;11985;49.404;7.734;2023-04-30T14:59:10;97469.94;;;17.96;45.23
23616;BME280;11985;49.404;7.734;2023-04-30T15:04:12;97458.41;;;18.12;45.42
23616;BME280;11985;49.404;7.734;2023-04-30T15:09:15;97472.66;;;18.23;43.97
23616;BME280;11985;49.404;7.734;2023-04-30T15:14:17;97461.81;;;18.08;44.91
23616;BME280;11985;49.404;7.734;2023-04-30T15:19:18;97460.66;;;18.47;43.80
23616;BME280;11985;49.404;7.734;2023-04-30T15:24:21;97450.28;;;18.24;43.56
23616;BME280;11985;49.404;7.734;2023-04-30T15:29:23;97437.88;;;18.13;44.37
23616;BME280;11985;49.404;7.734;2023-04-30T15:34:25;97438.44;;;17.32;44.09
23616;BME280;11985;49.404;7.734;2023-04-30T15:39:28;97444.50;;;16.77;44.92
23616;BME280;11985;49.404;7.734;2023-04-30T15:44:30;97441.34;;;16.80;45.27
23616;BME280;11985;49.404;7.734;2023-04-30T15:49:31;97435.06;;;16.86;45.50
23616;BME280;11985;49.404;7.734;2023-04-30T15:54:34;97435.06;;;16.86;45.89
23616;BME280;11985;49.404;7.734;2023-04-30T15:59:36;97425.31;;;16.75;45.62
23616;BME280;11985;49.404;7.734;2023-04-30T16:04:38;97416.47;;;16.58;45.79
23616;BME280;11985;49.404;7.734;2023-04-30T16:09:42;97408.41;;;16.53;45.80
23616;BME280;11985;49.404;7.734;2023-04-30T16:14:45;97406.66;;;16.58;46.08
23616;BME280;11985;49.404;7.734;2023-04-30T16:19:46;97403.31;;;16.97;46.96
23616;BME280;11985;49.404;7.734;2023-04-30T16:24:49;97396.69;;;16.99;46.44
23616;BME280;11985;49.404;7.734;2023-04-30T16:29:51;97392.88;;;16.61;46.38
23616;BME280;11985;49.404;7.734;2023-04-30T16:34:52;97397.47;;;16.49;47.28
23616;BME280;11985;49.404;7.734;2023-04-30T16:39:55;97389.78;;;16.53;47.10
23616;BME280;11985;49.404;7.734;2023-04-30T16:44:57;97381.50;;;16.49;47.08
23616;BME280;11985;49.404;7.734;2023-04-30T16:49:59;97386.34;;;16.69;47.41
23616;BME280;11985;49.404;7.734;2023-04-30T16:55:02;97385.09;;;16.88;46.93
23616;BME280;11985;49.404;7.734;2023-04-30T17:00:05;97386.53;;;16.96;46.47
23616;BME280;11985;49.404;7.734;2023-04-30T17:05:08;97384.78;;;16.85;46.65
23616;BME280;11985;49.404;7.734;2023-04-30T17:10:12;97384.81;;;16.56;47.04
23616;BME280;11985;49.404;7.734;2023-04-30T17:15:13;97378.06;;;16.20;47.30
23616;BME280;11985;49.404;7.734;2023-04-30T17:20:17;97374.84;;;16.18;47.58
23616;BME280;11985;49.404;7.734;2023-04-30T17:25:20;97372.28;;;16.23;48.41
23616;BME280;11985;49.404;7.734;2023-04-30T17:30:22;97368.03;;;16.22;48.42
23616;BME280;11985;49.404;7.734;2023-04-30T17:35:25;97376.28;;;16.09;47.99
23616;BME280;11985;49.404;7.734;2023-04-30T17:40:29;97379.78;;;15.98;48.50
23616;BME280;11985;49.404;7.734;2023-04-30T17:45:31;97379.59;;;15.88;48.86
23616;BME280;11985;49.404;7.734;2023-04-30T17:50:32;97383.09;;;15.76;49.25
23616;BME280;11985;49.404;7.734;2023-04-30T17:55:36;97382.41;;;15.69;49.41
23616;BME280;11985;49.404;7.734;2023-04-30T18:00:39;97383.78;;;15.60;52.24
23616;BME280;11985;49.404;7.734;2023-04-30T18:05:41;97395.84;;;15.39;53.47
23616;BME280;11985;49.404;7.734;2023-04-30T18:10:46;97387.00;;;15.22;55.33
23616;BME280;11985;49.404;7.734;2023-04-30T18:15:48;97388.50;;;15.06;56.55
23616;BME280;11985;49.404;7.734;2023-04-30T18:20:50;97388.00;;;14.86;57.74
23616;BME280;11985;49.404;7.734;2023-04-30T18:25:53;97391.56;;;14.68;58.77
23616;BME280;11985;49.404;7.734;2023-04-30T18:30:55;97389.81;;;14.50;60.07
23616;BME280;11985;49.404;7.734;2023-04-30T18:35:57;97403.31;;;14.30;61.46
23616;BME280;11985;49.404;7.734;2023-04-30T18:41:03;97400.22;;;14.03;63.38
23616;BME280;11985;49.404;7.734;2023-04-30T18:46:04;97402.34;;;13.83;64.99
23616;BME280;11985;49.404;7.734;2023-04-30T18:51:06;97394.84;;;13.61;66.31
23616;BME280;11985;49.404;7.734;2023-04-30T18:56:09;97402.78;;;13.43;67.73
23616;BME280;11985;49.404;7.734;2023-04-30T19:01:11;97399.53;;;13.23;69.14
23616;BME280;11985;49.404;7.734;2023-04-30T19:06:13;97406.59;;;13.04;69.78
23616;BME280;11985;49.404;7.734;2023-04-30T19:11:16;97412.06;;;12.84;70.72
23616;BME280;11985;49.404;7.734;2023-04-30T19:16:17;97403.50;;;12.63;72.15
23616;BME280;11985;49.404;7.734;2023-04-30T19:21:19;97398.13;;;12.45;72.49
23616;BME280;11985;49.404;7.734;2023-04-30T19:26:22;97395.34;;;12.40;73.04
23616;BME280;11985;49.404;7.734;2023-04-30T19:31:24;97401.81;;;12.44;74.48
23616;BME280;11985;49.404;7.734;2023-04-30T19:36:26;97403.03;;;12.41;75.87
23616;BME280;11985;49.404;7.734;2023-04-30T19:41:29;97405.56;;;12.30;76.97
23616;BME280;11985;49.404;7.734;2023-04-30T19:46:30;97408.88;;;12.19;77.34
23616;BME280;11985;49.404;7.734;2023-04-30T19:51:32;97414.06;;;12.00;78.37
23616;BME280;11985;49.404;7.734;2023-04-30T19:56:35;97408.03;;;11.80;79.68
23616;BME280;11985;49.404;7.734;2023-04-30T20:01:37;97409.91;;;11.59;80.82
23616;BME280;11985;49.404;7.734;2023-04-30T20:06:39;97401.06;;;11.41;81.61
23616;BME280;11985;49.404;7.734;2023-04-30T20:11:42;97403.91;;;11.26;82.95
23616;BME280;11985;49.404;7.734;2023-04-30T20:16:48;97404.38;;;11.16;84.54
23616;BME280;11985;49.404;7.734;2023-04-30T20:21:53;97396.88;;;11.06;85.74
23616;BME280;11985;49.404;7.734;2023-04-30T20:26:56;97406.00;;;10.97;87.02
23616;BME280;11985;49.404;7.734;2023-04-30T20:31:57;97400.75;;;10.91;88.62
23616;BME280;11985;49.404;7.734;2023-04-30T20:36:59;97395.47;;;10.91;89.83
23616;BME280;11985;49.404;7.734;2023-04-30T20:42:03;97393.63;;;11.04;90.21
23616;BME280;11985;49.404;7.734;2023-04-30T20:47:05;97388.16;;;11.13;90.31
23616;BME280;11985;49.404;7.734;2023-04-30T20:52:08;97382.88;;;11.13;90.77
23616;BME280;11985;49.404;7.734;2023-04-30T20:57:12;97385.31;;;11.07;91.83
23616;BME280;11985;49.404;7.734;2023-04-30T21:02:14;97393.03;;;10.96;92.10
23616;BME280;11985;49.404;7.734;2023-04-30T21:07:15;97385.34;;;10.81;92.68
23616;BME280;11985;49.404;7.734;2023-04-30T21:12:18;97384.13;;;10.64;93.26
23616;BME280;11985;49.404;7.734;2023-04-30T21:17:20;97385.34;;;10.48;94.66
23616;BME280;11985;49.404;7.734;2023-04-30T21:22:22;97374.59;;;10.29;95.97
23616;BME280;11985;49.404;7.734;2023-04-30T21:27:25;97373.34;;;10.12;97.43
23616;BME280;11985;49.404;7.734;2023-04-30T21:32:27;97369.84;;;9.98;97.57
23616;BME280;11985;49.404;7.734;2023-04-30T21:37:28;97362.75;;;9.86;98.10
23616;BME280;11985;49.404;7.734;2023-04-30T21:42:31;97371.00;;;9.76;98.69
23616;BME280;11985;49.404;7.734;2023-04-30T21:47:33;97360.44;;;9.63;99.48
23616;BME280;11985;49.404;7.734;2023-04-30T21:52:35;97362.84;;;9.51;100.00
23616;BME280;11985;49.404;7.734;2023-04-30T21:57:38;97363.19;;;9.41;100.00
23616;BME280;11985;49.404;7.734;2023-04-30T22:02:39;97353.47;;;9.35;100.00
23616;BME280;11985;49.404;7.734;2023-04-30T22:07:41;97352.00;;;9.26;100.00
23616;BME280;11985;49.404;7.734;2023-04-30T22:12:44;97341.03;;;9.16;100.00
23616;BME280;11985;49.404;7.734;2023-04-30T22:17:46;97339.59;;;9.07;100.00
23616;BME280;11985;49.404;7.734;2023-04-30T22:22:48;97337.31;;;9.04;100.00
23616;BME280;11985;49.404;7.734;2023-04-30T22:27:51;97332.47;;;9.01;100.00
23616;BME280;11985;49.404;7.734;2023-04-30T22:32:54;97321.94;;;8.94;100.00
23616;BME280;11985;49.404;7.734;2023-04-30T22:37:56;97323.72;;;8.93;100.00
23616;BME280;11985;49.404;7.734;2023-04-30T22:42:59;97328.78;;;8.88;100.00
23616;BME280;11985;49.404;7.734;2023-04-30T22:48:01;97321.56;;;8.69;100.00
23616;BME280;11985;49.404;7.734;2023-04-30T22:53:03;97320.69;;;8.55;100.00
23616;BME280;11985;49.404;7.734;2023-04-30T22:58:06;97315.44;;;8.55;100.00
23616;BME280;11985;49.404;7.734;2023-04-30T23:03:08;97323.13;;;8.57;100.00
23616;BME280;11985;49.404;7.734;2023-04-30T23:08:10;97314.00;;;8.53;100.00
23616;BME280;11985;49.404;7.734;2023-04-30T23:13:13;97315.75;;;8.45;100.00
23616;BME280;11985;49.404;7.734;2023-04-30T23:18:15;97311.28;;;8.39;100.00
23616;BME280;11985;49.404;7.734;2023-04-30T23:23:17;97308.38;;;8.34;100.00
23616;BME280;11985;49.404;7.734;2023-04-30T23:28:19;97305.13;;;8.32;100.00
23616;BME280;11985;49.404;7.734;2023-04-30T23:33:21;97299.41;;;8.22;100.00
23616;BME280;11985;49.404;7.734;2023-04-30T23:38:23;97296.03;;;8.07;100.00
23616;BME280;11985;49.404;7.734;2023-04-30T23:43:26;97302.59;;;7.96;100.00
23616;BME280;11985;49.404;7.734;2023-04-30T23:48:28;97296.31;;;7.90;100.00
23616;BME280;11985;49.404;7.734;2023-04-30T23:53:30;97284.00;;;7.91;100.00
23616;BME280;11985;49.404;7.734;2023-04-30T23:58:34;97274.72;;;7.88;100.00
